Accueil
METAR-TAF:

METAR-TAF

Aéroports :

Aéroport international de Charleston

Charleston, Caroline du Sud, États-Unis

latitude: 32-53-56N, longitude: 080-02-26W, altitude: 14 m

Observation

Le bulletin a été fait il y a 57 minutes, à 21:56 UTC
Vent 3 kt de nord
Température 14°C
Humidité 51%
Pression 1021 hPa
Visibilité: 16.1 km
Quelques nuages à une hauteur de 20000 ft

METAR: KCHS 202156Z 36003KT 10SM FEW200 14/04 A3015 RMK AO2 SLP210 T01440039

Heure: 17:53 (22:53 UTC)

Prévision

Le bulletin a été fait il y a 5 heures et 32 minutes, à 17:21 UTC
Prévision valable du 20 à 18 UTC au 21 à 18 UTC
Vent 9 kt de nord
Visibilité: 10 km
Ciel clair
A partir de 21 à 0000 UTC
Vent 3 kt de nord/nord-est
Visibilité: 10 km
Ciel clair
A partir de 21 à 1400 UTC
Vent 5 kt de nord-est
Visibilité: 10 km
Quelques nuages à une hauteur de 15000 ft

TAF: KCHS 201721Z 2018/2118 36009KT P6SM SKC FM210000 02003KT P6SM SKC FM211400 05005KT P6SM FEW150

Observations et prévisions météorologiques de plus de 4000 aéroports (messages METAR et TAF).

Les stations disponibles sont représentées par des disques jaunes et rouges sur la carte.

Passer la souris dessus pour voir le nom de la station.

Cliquer dessus pour voir les observations et prévisions météorologiques.

Pour changer de carte: cliquez sur les boutons verts avec une croix noire pour zoomer, sur le bouton vert avec un tiret pour effectuer un zoom arrière, ou sur les flèches vertes pour les cartes adjacentes.


METAR-TAF: